PGT9WP LTFJ-LTBS
Flight info
| Callsign | PGT9WP |
|---|---|
| Flight time | 0h 50m |
| Altitude | 34000 |
| Route | ROXUK1K/24R ROXUK UT409 NUMTI UT241 DEN/N0429F330 UW87 LAVTA/N0402F270 W87 ATSAL |
| Aircraft | A320/M-SDE3FGHIRWY/LB1 |
Departure
| Time | 2026-04-10 10:45 |
|---|---|
| Airport | Istanbul Sabiha Gökçen International Airport (LTFJ) |
Arrival
| Time | 2026-04-10 11:35 |
|---|---|
| Airport | Dalaman International Airport (LTBS) |
| Time | Latitude | Longitude | Altitude | Speed | Heading |
|---|---|---|---|---|---|
| 2026-04-10 10:19 | 40.90635 | 29.31648 | 319 ft | 0 kts | 334° |
| 2026-04-10 10:32 | 40.90625 | 29.31654 | 321 ft | 3 kts | 334° |
| 2026-04-10 10:32 | 40.90607 | 29.31665 | 321 ft | 3 kts | 336° |
| 2026-04-10 10:32 | 40.90588 | 29.31676 | 319 ft | 3 kts | 339° |
| 2026-04-10 10:33 | 40.90569 | 29.31684 | 318 ft | 3 kts | 348° |
| 2026-04-10 10:33 | 40.90550 | 29.31687 | 320 ft | 3 kts | 17° |
| 2026-04-10 10:33 | 40.90539 | 29.31680 | 320 ft | 1 kts | 63° |
| 2026-04-10 10:33 | 40.90538 | 29.31679 | 320 ft | 0 kts | 64° |
| 2026-04-10 10:39 | 40.90540 | 29.31685 | 319 ft | 3 kts | 64° |
| 2026-04-10 10:40 | 40.90557 | 29.31729 | 320 ft | 6 kts | 63° |
| 2026-04-10 10:40 | 40.90580 | 29.31789 | 321 ft | 9 kts | 63° |
| 2026-04-10 10:40 | 40.90611 | 29.31874 | 319 ft | 9 kts | 63° |
| 2026-04-10 10:40 | 40.90596 | 29.31927 | 320 ft | 7 kts | 143° |
| 2026-04-10 10:41 | 40.90543 | 29.31964 | 321 ft | 7 kts | 154° |
| 2026-04-10 10:41 | 40.90490 | 29.32003 | 321 ft | 11 kts | 138° |
| 2026-04-10 10:41 | 40.90490 | 29.32075 | 320 ft | 7 kts | 65° |
| 2026-04-10 10:41 | 40.90517 | 29.32147 | 320 ft | 7 kts | 63° |
| 2026-04-10 10:42 | 40.90544 | 29.32222 | 321 ft | 9 kts | 64° |
| 2026-04-10 10:42 | 40.90572 | 29.32296 | 320 ft | 9 kts | 64° |
| 2026-04-10 10:42 | 40.90587 | 29.32366 | 320 ft | 7 kts | 86° |
| 2026-04-10 10:42 | 40.90562 | 29.32434 | 321 ft | 8 kts | 145° |
| 2026-04-10 10:43 | 40.90520 | 29.32462 | 320 ft | 0 kts | 153° |
| 2026-04-10 10:43 | 40.90477 | 29.32486 | 320 ft | 11 kts | 168° |
| 2026-04-10 10:43 | 40.90418 | 29.32451 | 318 ft | 8 kts | 233° |
| 2026-04-10 10:44 | 40.90399 | 29.32402 | 319 ft | 7 kts | 244° |
| 2026-04-10 10:44 | 40.90307 | 29.32149 | 319 ft | 65 kts | 244° |
| 2026-04-10 10:44 | 40.90016 | 29.31363 | 319 ft | 124 kts | 244° |
| 2026-04-10 10:44 | 40.89565 | 29.30150 | 414 ft | 161 kts | 244° |
| 2026-04-10 10:45 | 40.89084 | 29.28836 | 1195 ft | 159 kts | 245° |
| 2026-04-10 10:45 | 40.88591 | 29.27523 | 1982 ft | 160 kts | 246° |
| 2026-04-10 10:45 | 40.88097 | 29.26141 | 2479 ft | 176 kts | 247° |
| 2026-04-10 10:45 | 40.87545 | 29.24586 | 2811 ft | 199 kts | 246° |
| 2026-04-10 10:46 | 40.86918 | 29.22829 | 3219 ft | 223 kts | 246° |
| 2026-04-10 10:46 | 40.86225 | 29.20891 | 3785 ft | 241 kts | 246° |
| 2026-04-10 10:46 | 40.85498 | 29.18867 | 3978 ft | 244 kts | 246° |
| 2026-04-10 10:46 | 40.84749 | 29.16859 | 4007 ft | 244 kts | 240° |
| 2026-04-10 10:47 | 40.83491 | 29.15384 | 4011 ft | 248 kts | 202° |
| 2026-04-10 10:47 | 40.81723 | 29.15262 | 4338 ft | 270 kts | 167° |
| 2026-04-10 10:47 | 40.79976 | 29.16165 | 5388 ft | 271 kts | 154° |
| 2026-04-10 10:47 | 40.78317 | 29.17367 | 6378 ft | 274 kts | 151° |
| 2026-04-10 10:48 | 40.76659 | 29.18645 | 6829 ft | 277 kts | 151° |
| 2026-04-10 10:48 | 40.74983 | 29.19898 | 7110 ft | 279 kts | 153° |
| 2026-04-10 10:48 | 40.73266 | 29.21105 | 8008 ft | 281 kts | 154° |
| 2026-04-10 10:48 | 40.71514 | 29.22273 | 8894 ft | 285 kts | 155° |
| 2026-04-10 10:49 | 40.69721 | 29.23426 | 9776 ft | 289 kts | 155° |
| 2026-04-10 10:49 | 40.67874 | 29.24587 | 10346 ft | 304 kts | 156° |
| 2026-04-10 10:49 | 40.65886 | 29.25823 | 10624 ft | 328 kts | 156° |
| 2026-04-10 10:49 | 40.63780 | 29.27132 | 11188 ft | 339 kts | 156° |
| 2026-04-10 10:50 | 40.61632 | 29.28468 | 11945 ft | 344 kts | 156° |
| 2026-04-10 10:50 | 40.59455 | 29.29818 | 12736 ft | 348 kts | 156° |
| 2026-04-10 10:50 | 40.57256 | 29.31184 | 13503 ft | 352 kts | 157° |
| 2026-04-10 10:50 | 40.55035 | 29.32561 | 14221 ft | 355 kts | 157° |
| 2026-04-10 10:51 | 40.52787 | 29.33954 | 14894 ft | 359 kts | 158° |
| 2026-04-10 10:51 | 40.50515 | 29.35361 | 15566 ft | 362 kts | 158° |
| 2026-04-10 10:51 | 40.48250 | 29.36862 | 16217 ft | 369 kts | 153° |
| 2026-04-10 10:51 | 40.46143 | 29.38855 | 16852 ft | 377 kts | 145° |
| 2026-04-10 10:52 | 40.44088 | 29.41014 | 17481 ft | 381 kts | 146° |
| 2026-04-10 10:52 | 40.42032 | 29.43175 | 18075 ft | 386 kts | 146° |
| 2026-04-10 10:52 | 40.39920 | 29.45385 | 18637 ft | 391 kts | 147° |
| 2026-04-10 10:52 | 40.37681 | 29.47385 | 19122 ft | 387 kts | 160° |
| 2026-04-10 10:53 | 40.35162 | 29.48470 | 19618 ft | 378 kts | 178° |
| 2026-04-10 10:53 | 40.32580 | 29.48536 | 20120 ft | 368 kts | 195° |
| 2026-04-10 10:53 | 40.30153 | 29.47662 | 20638 ft | 360 kts | 208° |
| 2026-04-10 10:53 | 40.27816 | 29.46444 | 21188 ft | 362 kts | 208° |
| 2026-04-10 10:54 | 40.25467 | 29.45214 | 21729 ft | 365 kts | 209° |
| 2026-04-10 10:54 | 40.23102 | 29.43976 | 22251 ft | 368 kts | 209° |
| 2026-04-10 10:54 | 40.20715 | 29.42728 | 22775 ft | 371 kts | 209° |
| 2026-04-10 10:54 | 40.18313 | 29.41477 | 23262 ft | 373 kts | 210° |
| 2026-04-10 10:55 | 40.15893 | 29.40220 | 23752 ft | 376 kts | 210° |
| 2026-04-10 10:55 | 40.13452 | 29.38953 | 24167 ft | 379 kts | 210° |
| 2026-04-10 10:55 | 40.10989 | 29.37676 | 24574 ft | 382 kts | 210° |
| 2026-04-10 10:55 | 40.08513 | 29.36395 | 24963 ft | 384 kts | 210° |
| 2026-04-10 10:56 | 40.06016 | 29.35106 | 25328 ft | 388 kts | 210° |
| 2026-04-10 10:56 | 40.03496 | 29.33807 | 25685 ft | 391 kts | 210° |
| 2026-04-10 10:56 | 40.00965 | 29.32505 | 26067 ft | 393 kts | 210° |
| 2026-04-10 10:56 | 39.98416 | 29.31193 | 26411 ft | 395 kts | 210° |
| 2026-04-10 10:57 | 39.95847 | 29.29868 | 26789 ft | 398 kts | 210° |
| 2026-04-10 10:57 | 39.93260 | 29.28535 | 27156 ft | 401 kts | 210° |
| 2026-04-10 10:57 | 39.90659 | 29.27194 | 27528 ft | 404 kts | 210° |
| 2026-04-10 10:57 | 39.88035 | 29.25844 | 27868 ft | 407 kts | 210° |
| 2026-04-10 10:58 | 39.85394 | 29.24484 | 28211 ft | 410 kts | 210° |
| 2026-04-10 10:58 | 39.82735 | 29.23116 | 28543 ft | 413 kts | 210° |
| 2026-04-10 10:58 | 39.80057 | 29.21741 | 28904 ft | 415 kts | 210° |
| 2026-04-10 10:58 | 39.77365 | 29.20363 | 29249 ft | 417 kts | 210° |
| 2026-04-10 10:59 | 39.74649 | 29.18980 | 29578 ft | 420 kts | 210° |
| 2026-04-10 10:59 | 39.71918 | 29.17591 | 29894 ft | 423 kts | 210° |
| 2026-04-10 10:59 | 39.69170 | 29.16194 | 30201 ft | 425 kts | 210° |
| 2026-04-10 10:59 | 39.66406 | 29.14786 | 30452 ft | 428 kts | 210° |
| 2026-04-10 11:00 | 39.63632 | 29.13368 | 30700 ft | 430 kts | 211° |
| 2026-04-10 11:00 | 39.60839 | 29.11940 | 30923 ft | 433 kts | 210° |
| 2026-04-10 11:00 | 39.58029 | 29.10508 | 31156 ft | 436 kts | 210° |
| 2026-04-10 11:00 | 39.55198 | 29.09068 | 31418 ft | 437 kts | 210° |
| 2026-04-10 11:01 | 39.52370 | 29.07633 | 31769 ft | 437 kts | 210° |
| 2026-04-10 11:01 | 39.49536 | 29.06198 | 32087 ft | 438 kts | 210° |
| 2026-04-10 11:01 | 39.46700 | 29.04761 | 32407 ft | 438 kts | 211° |
| 2026-04-10 11:01 | 39.43863 | 29.03316 | 32697 ft | 439 kts | 211° |
| 2026-04-10 11:02 | 39.41017 | 29.01866 | 32985 ft | 440 kts | 211° |
| 2026-04-10 11:02 | 39.38165 | 29.00420 | 33295 ft | 440 kts | 210° |
| 2026-04-10 11:02 | 39.35312 | 28.98978 | 33618 ft | 441 kts | 210° |
| 2026-04-10 11:02 | 39.32450 | 28.97531 | 33915 ft | 442 kts | 210° |
| 2026-04-10 11:03 | 39.29590 | 28.96084 | 34053 ft | 441 kts | 210° |
| 2026-04-10 11:03 | 39.23921 | 28.93237 | 34070 ft | 435 kts | 211° |
| 2026-04-10 11:04 | 39.18293 | 28.90409 | 34067 ft | 434 kts | 211° |
| 2026-04-10 11:04 | 39.12670 | 28.87585 | 34064 ft | 434 kts | 211° |
| 2026-04-10 11:05 | 39.04241 | 28.83364 | 34054 ft | 433 kts | 211° |
| 2026-04-10 11:05 | 38.98630 | 28.80555 | 34038 ft | 433 kts | 211° |
| 2026-04-10 11:06 | 38.93012 | 28.77748 | 34044 ft | 433 kts | 211° |
| 2026-04-10 11:06 | 38.87392 | 28.74941 | 34039 ft | 433 kts | 211° |
| 2026-04-10 11:07 | 38.81780 | 28.72154 | 34034 ft | 433 kts | 211° |
| 2026-04-10 11:07 | 38.76158 | 28.69360 | 34033 ft | 433 kts | 211° |
| 2026-04-10 11:08 | 38.70540 | 28.66570 | 34032 ft | 433 kts | 211° |
| 2026-04-10 11:08 | 38.64921 | 28.63791 | 34027 ft | 433 kts | 211° |
| 2026-04-10 11:09 | 38.59209 | 28.61232 | 34022 ft | 444 kts | 202° |
| 2026-04-10 11:09 | 38.56105 | 28.60684 | 34020 ft | 458 kts | 192° |
| 2026-04-10 11:09 | 38.52883 | 28.60831 | 34023 ft | 469 kts | 183° |
| 2026-04-10 11:10 | 38.46382 | 28.61629 | 34011 ft | 469 kts | 183° |
| 2026-04-10 11:10 | 38.39888 | 28.62406 | 33763 ft | 468 kts | 183° |
| 2026-04-10 11:11 | 38.36647 | 28.62789 | 32996 ft | 468 kts | 184° |
| 2026-04-10 11:11 | 38.33409 | 28.63169 | 32360 ft | 466 kts | 184° |
| 2026-04-10 11:11 | 38.30197 | 28.63549 | 31803 ft | 461 kts | 184° |
| 2026-04-10 11:11 | 38.27015 | 28.63929 | 31289 ft | 457 kts | 184° |
| 2026-04-10 11:12 | 38.23866 | 28.64302 | 30767 ft | 453 kts | 184° |
| 2026-04-10 11:12 | 38.20738 | 28.64670 | 30265 ft | 450 kts | 184° |
| 2026-04-10 11:12 | 38.17632 | 28.65034 | 29707 ft | 446 kts | 184° |
| 2026-04-10 11:12 | 38.14561 | 28.65393 | 29141 ft | 441 kts | 184° |
| 2026-04-10 11:13 | 38.11515 | 28.65750 | 28596 ft | 437 kts | 184° |
| 2026-04-10 11:13 | 38.08541 | 28.66100 | 28051 ft | 433 kts | 184° |
| 2026-04-10 11:13 | 38.05560 | 28.66452 | 27544 ft | 428 kts | 184° |
| 2026-04-10 11:13 | 38.02608 | 28.66802 | 27033 ft | 424 kts | 184° |
| 2026-04-10 11:14 | 37.99687 | 28.67148 | 26514 ft | 419 kts | 184° |
| 2026-04-10 11:14 | 37.96800 | 28.67488 | 25985 ft | 415 kts | 184° |
| 2026-04-10 11:14 | 37.96030 | 28.67572 | 25821 ft | 411 kts | 184° |
| 2026-04-10 11:14 | 37.93179 | 28.67871 | 25252 ft | 410 kts | 184° |
| 2026-04-10 11:15 | 37.91265 | 28.68088 | 24928 ft | 408 kts | 184° |
| 2026-04-10 11:15 | 37.87539 | 28.68529 | 24310 ft | 404 kts | 184° |
| 2026-04-10 11:15 | 37.85654 | 28.68756 | 23987 ft | 402 kts | 184° |
| 2026-04-10 11:15 | 37.82879 | 28.69090 | 23515 ft | 399 kts | 184° |
| 2026-04-10 11:16 | 37.80128 | 28.69418 | 23008 ft | 396 kts | 184° |
| 2026-04-10 11:16 | 37.77398 | 28.69742 | 22522 ft | 392 kts | 183° |
| 2026-04-10 11:16 | 37.74694 | 28.70058 | 22049 ft | 389 kts | 183° |
| 2026-04-10 11:16 | 37.72011 | 28.70365 | 21576 ft | 385 kts | 184° |
| 2026-04-10 11:17 | 37.69353 | 28.70618 | 21124 ft | 381 kts | 185° |
| 2026-04-10 11:17 | 37.66718 | 28.70809 | 20681 ft | 377 kts | 185° |
| 2026-04-10 11:17 | 37.64106 | 28.70971 | 20260 ft | 374 kts | 186° |
| 2026-04-10 11:17 | 37.61517 | 28.71127 | 19846 ft | 371 kts | 185° |
| 2026-04-10 11:18 | 37.58977 | 28.71285 | 19448 ft | 369 kts | 185° |
| 2026-04-10 11:18 | 37.56392 | 28.71454 | 19060 ft | 366 kts | 185° |
| 2026-04-10 11:18 | 37.53854 | 28.71629 | 18664 ft | 364 kts | 185° |
| 2026-04-10 11:18 | 37.51353 | 28.71643 | 18253 ft | 355 kts | 193° |
| 2026-04-10 11:19 | 37.48956 | 28.71166 | 17813 ft | 344 kts | 202° |
| 2026-04-10 11:19 | 37.46751 | 28.70258 | 17383 ft | 333 kts | 210° |
| 2026-04-10 11:19 | 37.44578 | 28.69145 | 16866 ft | 333 kts | 210° |
| 2026-04-10 11:19 | 37.42437 | 28.68057 | 16358 ft | 332 kts | 209° |
| 2026-04-10 11:20 | 37.40296 | 28.66979 | 16050 ft | 330 kts | 209° |
| 2026-04-10 11:20 | 37.38193 | 28.65925 | 16016 ft | 330 kts | 209° |
| 2026-04-10 11:20 | 37.36030 | 28.64839 | 16025 ft | 331 kts | 209° |
| 2026-04-10 11:20 | 37.33924 | 28.63779 | 16023 ft | 331 kts | 209° |
| 2026-04-10 11:21 | 37.31758 | 28.62688 | 16019 ft | 331 kts | 209° |
| 2026-04-10 11:21 | 37.29644 | 28.61624 | 16020 ft | 332 kts | 208° |
| 2026-04-10 11:21 | 37.27475 | 28.60534 | 16020 ft | 332 kts | 209° |
| 2026-04-10 11:21 | 37.25324 | 28.59472 | 15797 ft | 337 kts | 206° |
| 2026-04-10 11:22 | 37.23025 | 28.58835 | 15433 ft | 349 kts | 191° |
| 2026-04-10 11:22 | 37.20563 | 28.58902 | 15160 ft | 359 kts | 177° |
| 2026-04-10 11:22 | 37.18125 | 28.59597 | 14891 ft | 358 kts | 171° |
| 2026-04-10 11:22 | 37.15760 | 28.60517 | 14604 ft | 354 kts | 157° |
| 2026-04-10 11:23 | 37.13800 | 28.62362 | 14339 ft | 355 kts | 131° |
| 2026-04-10 11:23 | 37.12591 | 28.65027 | 14069 ft | 352 kts | 105° |
| 2026-04-10 11:23 | 37.12328 | 28.68017 | 13810 ft | 343 kts | 80° |
| 2026-04-10 11:23 | 37.12701 | 28.70932 | 13510 ft | 334 kts | 76° |
| 2026-04-10 11:24 | 37.13099 | 28.73736 | 13205 ft | 320 kts | 75° |
| 2026-04-10 11:24 | 37.13484 | 28.76430 | 12921 ft | 311 kts | 76° |
| 2026-04-10 11:24 | 37.13865 | 28.79081 | 12626 ft | 308 kts | 76° |
| 2026-04-10 11:24 | 37.14241 | 28.81719 | 12342 ft | 307 kts | 76° |
| 2026-04-10 11:25 | 37.14611 | 28.84343 | 12057 ft | 305 kts | 76° |
| 2026-04-10 11:25 | 37.14976 | 28.86947 | 11771 ft | 302 kts | 77° |
| 2026-04-10 11:25 | 37.15334 | 28.89517 | 11489 ft | 294 kts | 77° |
| 2026-04-10 11:25 | 37.15543 | 28.92021 | 11209 ft | 285 kts | 90° |
| 2026-04-10 11:26 | 37.15253 | 28.94447 | 10937 ft | 279 kts | 106° |
| 2026-04-10 11:26 | 37.14495 | 28.96658 | 10661 ft | 275 kts | 122° |
| 2026-04-10 11:26 | 37.13331 | 28.98533 | 10408 ft | 272 kts | 137° |
| 2026-04-10 11:26 | 37.11931 | 29.00108 | 10167 ft | 270 kts | 140° |
| 2026-04-10 11:27 | 37.10533 | 29.01668 | 9921 ft | 268 kts | 140° |
| 2026-04-10 11:27 | 37.09142 | 29.03227 | 9523 ft | 269 kts | 140° |
| 2026-04-10 11:27 | 37.07639 | 29.04559 | 9063 ft | 262 kts | 159° |
| 2026-04-10 11:27 | 37.05917 | 29.05112 | 8621 ft | 253 kts | 181° |
| 2026-04-10 11:28 | 37.04199 | 29.04854 | 8175 ft | 246 kts | 203° |
| 2026-04-10 11:28 | 37.02682 | 29.03920 | 7740 ft | 242 kts | 215° |
| 2026-04-10 11:28 | 37.01231 | 29.02847 | 7313 ft | 243 kts | 214° |
| 2026-04-10 11:28 | 36.99769 | 29.01771 | 6869 ft | 244 kts | 214° |
| 2026-04-10 11:29 | 36.98303 | 29.00697 | 6453 ft | 244 kts | 214° |
| 2026-04-10 11:29 | 36.96843 | 28.99631 | 6174 ft | 241 kts | 214° |
| 2026-04-10 11:29 | 36.95415 | 28.98592 | 5850 ft | 235 kts | 213° |
| 2026-04-10 11:29 | 36.94022 | 28.97551 | 5528 ft | 231 kts | 219° |
| 2026-04-10 11:30 | 36.92803 | 28.96289 | 5198 ft | 225 kts | 225° |
| 2026-04-10 11:30 | 36.91636 | 28.95044 | 4868 ft | 216 kts | 224° |
| 2026-04-10 11:30 | 36.90509 | 28.93851 | 4545 ft | 210 kts | 225° |
| 2026-04-10 11:30 | 36.89406 | 28.92683 | 4213 ft | 206 kts | 225° |
| 2026-04-10 11:31 | 36.88329 | 28.91545 | 3877 ft | 200 kts | 225° |
| 2026-04-10 11:31 | 36.87273 | 28.90429 | 3549 ft | 199 kts | 224° |
| 2026-04-10 11:31 | 36.86241 | 28.89340 | 3438 ft | 185 kts | 224° |
| 2026-04-10 11:31 | 36.85235 | 28.88431 | 3334 ft | 176 kts | 215° |
| 2026-04-10 11:32 | 36.84166 | 28.87647 | 2986 ft | 179 kts | 215° |
| 2026-04-10 11:32 | 36.83093 | 28.86864 | 2699 ft | 177 kts | 214° |
| 2026-04-10 11:32 | 36.82048 | 28.86103 | 2437 ft | 172 kts | 214° |
| 2026-04-10 11:32 | 36.81026 | 28.85359 | 2187 ft | 167 kts | 214° |
| 2026-04-10 11:33 | 36.80027 | 28.84632 | 1930 ft | 165 kts | 215° |
| 2026-04-10 11:33 | 36.79042 | 28.83913 | 1681 ft | 163 kts | 214° |
| 2026-04-10 11:33 | 36.78088 | 28.83217 | 1453 ft | 154 kts | 214° |
| 2026-04-10 11:33 | 36.77184 | 28.82556 | 1196 ft | 147 kts | 213° |
| 2026-04-10 11:34 | 36.76339 | 28.81905 | 920 ft | 139 kts | 215° |
| 2026-04-10 11:34 | 36.75558 | 28.81256 | 726 ft | 133 kts | 217° |
| 2026-04-10 11:34 | 36.74820 | 28.80595 | 546 ft | 130 kts | 219° |
| 2026-04-10 11:34 | 36.74046 | 28.80006 | 332 ft | 133 kts | 205° |
| 2026-04-10 11:35 | 36.73122 | 28.79838 | 147 ft | 134 kts | 191° |
| 2026-04-10 11:35 | 36.72246 | 28.79572 | 15 ft | 122 kts | 199° |
| 2026-04-10 11:35 | 36.71576 | 28.79341 | 12 ft | 75 kts | 195° |
| 2026-04-10 11:35 | 36.71191 | 28.79211 | 13 ft | 48 kts | 195° |
| 2026-04-10 11:36 | 36.70899 | 28.79107 | 13 ft | 38 kts | 198° |
| 2026-04-10 11:36 | 36.70709 | 28.79016 | 13 ft | 27 kts | 208° |
| 2026-04-10 11:36 | 36.70589 | 28.78895 | 13 ft | 11 kts | 227° |
| 2026-04-10 11:36 | 36.70579 | 28.78812 | 15 ft | 11 kts | 308° |
| 2026-04-10 11:37 | 36.70652 | 28.78811 | 13 ft | 11 kts | 16° |
| 2026-04-10 11:37 | 36.70756 | 28.78847 | 13 ft | 19 kts | 15° |
| 2026-04-10 11:37 | 36.70876 | 28.78887 | 13 ft | 17 kts | 14° |
| 2026-04-10 11:37 | 36.70987 | 28.78923 | 13 ft | 16 kts | 14° |
| 2026-04-10 11:38 | 36.71090 | 28.78959 | 13 ft | 15 kts | 16° |
| 2026-04-10 11:38 | 36.71185 | 28.78992 | 13 ft | 14 kts | 15° |
| 2026-04-10 11:38 | 36.71272 | 28.79024 | 13 ft | 11 kts | 16° |
| 2026-04-10 11:38 | 36.71326 | 28.79003 | 13 ft | 8 kts | 300° |
| 2026-04-10 11:39 | 36.71342 | 28.78922 | 13 ft | 11 kts | 282° |
| 2026-04-10 11:39 | 36.71374 | 28.78843 | 13 ft | 10 kts | 341° |
| 2026-04-10 11:39 | 36.71441 | 28.78857 | 13 ft | 10 kts | 15° |
| 2026-04-10 11:39 | 36.71542 | 28.78891 | 12 ft | 20 kts | 15° |
| 2026-04-10 11:40 | 36.71671 | 28.78936 | 12 ft | 18 kts | 15° |
| 2026-04-10 11:40 | 36.71789 | 28.78977 | 12 ft | 17 kts | 15° |
| 2026-04-10 11:40 | 36.71897 | 28.79015 | 12 ft | 16 kts | 14° |
| 2026-04-10 11:40 | 36.71965 | 28.79037 | 12 ft | 3 kts | 15° |
| 2026-04-10 11:41 | 36.71979 | 28.79033 | 14 ft | 2 kts | 324° |
| 2026-04-10 11:41 | 36.71994 | 28.78998 | 12 ft | 6 kts | 285° |
| 2026-04-10 11:41 | 36.71998 | 28.78975 | 12 ft | 0 kts | 283° |